createdAt,value
2022-11-05T00:00:51.437Z,16.67
2022-11-05T00:03:18.558Z,20.80
2022-11-05T00:05:48.544Z,22.33
2022-11-05T00:08:15.457Z,30.75
2022-11-05T00:10:42.599Z,32.72
2022-11-05T00:13:11.328Z,30.90
2022-11-05T00:15:38.659Z,33.22
2022-11-05T00:18:05.611Z,29.27
2022-11-05T00:20:33.529Z,25.98
2022-11-05T00:23:05.277Z,21.88
2022-11-05T00:25:33.213Z,25.42
2022-11-05T00:28:04.058Z,23.38
2022-11-05T00:30:31.304Z,23.93
2022-11-05T00:33:02.009Z,23.73
2022-11-05T00:35:28.971Z,23.23
2022-11-05T00:37:55.730Z,20.92
2022-11-05T00:40:23.125Z,18.17
2022-11-05T00:42:50.036Z,16.33
2022-11-05T00:45:17.487Z,21.90
2022-11-05T00:47:44.484Z,27.77
2022-11-05T00:50:11.427Z,29.45
2022-11-05T00:52:39.173Z,25.13
2022-11-05T00:55:06.239Z,25.27
2022-11-05T00:57:33.066Z,21.23
2022-11-05T00:59:59.942Z,26.75
2022-11-05T01:02:27.630Z,22.83
2022-11-05T01:04:54.622Z,16.50
2022-11-05T01:07:21.964Z,15.67
2022-11-05T01:09:48.856Z,19.40
2022-11-05T01:12:15.678Z,29.63
2022-11-05T01:14:42.636Z,29.95
2022-11-05T01:17:09.525Z,30.15
2022-11-05T01:19:36.332Z,31.27
2022-11-05T01:22:03.293Z,32.53
2022-11-05T01:24:31.316Z,26.33
2022-11-05T01:26:58.076Z,24.13
2022-11-05T01:29:25.581Z,22.10
2022-11-05T01:31:52.454Z,20.83
2022-11-05T01:34:19.327Z,20.20
2022-11-05T01:36:46.158Z,18.58
2022-11-05T01:39:13.809Z,21.58
2022-11-05T01:41:40.681Z,19.85
2022-11-05T01:44:46.882Z,27.47
2022-11-05T01:47:39.864Z,22.77
2022-11-05T01:50:42.527Z,19.52
2022-11-05T01:53:30.191Z,30.23
2022-11-05T01:56:13.888Z,31.13
2022-11-05T01:58:53.098Z,26.53
2022-11-05T02:01:20.383Z,21.65
2022-11-05T02:03:50.800Z,23.90
2022-11-05T02:06:18.828Z,31.67
2022-11-05T02:09:00.845Z,31.52
2022-11-05T02:11:28.897Z,34.17
2022-11-05T02:13:57.075Z,28.10
2022-11-05T02:16:53.445Z,27.27
2022-11-05T02:19:59.254Z,30.95
2022-11-05T02:22:26.110Z,22.15
2022-11-05T02:25:01.925Z,19.83
2022-11-05T02:28:15.227Z,21.88
2022-11-05T02:30:48.018Z,23.52
2022-11-05T02:33:31.625Z,27.67
2022-11-05T02:36:32.623Z,29.52
2022-11-05T02:39:22.238Z,31.57
2022-11-05T02:42:14.736Z,34.47
2022-11-05T02:44:59.815Z,30.95
2022-11-05T02:47:47.322Z,32.15
2022-11-05T02:50:44.750Z,35.38
2022-11-05T02:53:35.499Z,30.50
2022-11-05T02:56:27.085Z,27.33
2022-11-05T02:58:53.959Z,29.13
2022-11-05T03:01:20.826Z,27.20
2022-11-05T03:03:54.273Z,24.88
2022-11-05T03:06:42.939Z,26.10
2022-11-05T03:09:12.750Z,21.73
2022-11-05T03:12:14.423Z,19.92
2022-11-05T03:15:06.038Z,22.75
2022-11-05T03:17:38.833Z,23.60
2022-11-05T03:20:17.749Z,21.13
2022-11-05T03:22:54.606Z,18.60
2022-11-05T03:25:24.440Z,18.05
2022-11-05T03:27:58.447Z,26.13
2022-11-05T03:30:26.096Z,29.52
2022-11-05T03:33:00.861Z,28.80
2022-11-05T03:35:31.992Z,33.45
2022-11-05T03:38:05.376Z,26.20
2022-11-05T03:40:38.571Z,27.10
2022-11-05T03:43:08.288Z,24.25
2022-11-05T03:45:41.990Z,22.67
2022-11-05T03:48:12.374Z,20.98
2022-11-05T03:51:12.833Z,20.00
2022-11-05T03:53:55.865Z,20.42
2022-11-05T03:57:03.812Z,20.27
2022-11-05T03:59:32.876Z,26.83
2022-11-05T04:01:59.905Z,28.10
2022-11-05T04:04:26.974Z,27.08
2022-11-05T04:06:53.838Z,28.27
2022-11-05T04:09:20.965Z,33.90
2022-11-05T04:11:48.419Z,28.87
2022-11-05T04:14:15.290Z,29.73
2022-11-05T04:16:42.119Z,25.73
2022-11-05T04:19:08.976Z,23.90
2022-11-05T04:21:35.778Z,29.10
2022-11-05T04:24:03.281Z,29.97
2022-11-05T04:26:30.326Z,37.83
2022-11-05T04:28:58.157Z,29.65
2022-11-05T04:31:25.022Z,28.00
2022-11-05T04:33:51.932Z,25.92
2022-11-05T04:36:19.336Z,34.97
2022-11-05T04:38:46.148Z,27.45
2022-11-05T04:41:33.100Z,30.00
2022-11-05T04:44:00.026Z,29.73
2022-11-05T04:46:27.466Z,29.58
2022-11-05T04:48:55.660Z,23.73
2022-11-05T04:51:22.501Z,24.73
2022-11-05T04:53:50.733Z,27.08
2022-11-05T04:56:22.712Z,29.13
2022-11-05T04:58:49.883Z,28.02
2022-11-05T05:01:21.868Z,30.47
2022-11-05T05:03:53.716Z,26.52
2022-11-05T05:06:21.010Z,20.92
2022-11-05T05:08:56.289Z,20.35
2022-11-05T05:11:23.253Z,22.15
2022-11-05T05:13:50.426Z,28.27
2022-11-05T05:16:23.826Z,29.38
2022-11-05T05:18:51.349Z,29.92
2022-11-05T05:21:22.063Z,30.23
2022-11-05T05:23:49.116Z,29.02
2022-11-05T05:26:16.897Z,38.13
2022-11-05T05:28:43.727Z,39.58
2022-11-05T05:31:10.658Z,33.13
2022-11-05T05:33:37.596Z,38.08
2022-11-05T05:36:08.499Z,35.70
2022-11-05T05:38:38.321Z,34.47
2022-11-05T05:41:05.282Z,34.30
2022-11-05T05:43:33.678Z,35.25
2022-11-05T05:46:04.952Z,40.47
2022-11-05T05:58:20.700Z,66.05
2022-11-05T06:00:47.532Z,63.90
2022-11-05T06:03:14.776Z,60.72
2022-11-05T06:05:41.835Z,61.40
2022-11-05T06:08:08.699Z,64.05
2022-11-05T06:10:36.099Z,63.80
2022-11-05T06:13:03.369Z,51.58
2022-11-05T06:15:35.504Z,54.67
2022-11-05T06:18:02.824Z,53.40
2022-11-05T06:20:29.926Z,51.28
2022-11-05T06:22:57.649Z,46.05
2022-11-05T06:25:25.390Z,47.17
2022-11-05T06:27:53.476Z,45.07
2022-11-05T06:30:20.423Z,47.50
2022-11-05T06:32:47.542Z,46.35
2022-11-05T06:35:14.392Z,45.17
2022-11-05T06:37:41.250Z,47.10
2022-11-05T06:40:08.968Z,45.30
2022-11-05T06:42:35.968Z,37.85
2022-11-05T06:45:05.460Z,45.90
2022-11-05T06:47:32.182Z,44.42
2022-11-05T06:49:59.125Z,41.97
2022-11-05T06:52:25.917Z,42.53
2022-11-05T06:54:52.835Z,41.22
2022-11-05T06:57:20.694Z,41.58
2022-11-05T06:59:47.537Z,47.03
2022-11-05T07:02:14.429Z,44.00
2022-11-05T07:04:41.571Z,40.03
2022-11-05T07:07:08.371Z,40.38
2022-11-05T07:09:35.320Z,40.67
2022-11-05T07:12:02.153Z,41.78
2022-11-05T07:14:29.003Z,43.25
2022-11-05T07:16:57.603Z,50.93
2022-11-05T07:19:24.490Z,50.85
2022-11-05T07:21:51.351Z,56.13
2022-11-05T07:24:18.312Z,52.47
2022-11-05T07:26:45.189Z,57.35
2022-11-05T07:29:11.957Z,82.13
2022-11-05T07:31:38.744Z,77.72
2022-11-05T07:34:05.652Z,67.25
2022-11-05T07:36:32.500Z,59.50
2022-11-05T07:39:00.685Z,54.83
2022-11-05T07:41:27.705Z,56.33
2022-11-05T07:43:54.700Z,49.13
2022-11-05T07:46:21.548Z,49.40
2022-11-05T07:48:48.522Z,43.55
2022-11-05T07:51:15.277Z,39.55
2022-11-05T07:53:45.270Z,38.03
2022-11-05T07:56:12.931Z,37.65
2022-11-05T07:58:39.808Z,42.67
2022-11-05T08:01:06.826Z,36.88
2022-11-05T08:03:34.471Z,33.70
2022-11-05T08:06:01.534Z,38.80
2022-11-05T08:08:28.356Z,42.08
2022-11-05T08:11:03.326Z,40.95
2022-11-05T08:13:30.146Z,41.22
2022-11-05T08:15:57.596Z,36.70
2022-11-05T08:18:24.922Z,33.10
2022-11-05T08:20:51.700Z,34.30
2022-11-05T08:23:18.524Z,29.85
2022-11-05T08:25:45.361Z,32.10
2022-11-05T08:28:13.504Z,32.97
2022-11-05T08:30:40.966Z,31.50
2022-11-05T08:33:11.792Z,34.35
2022-11-05T08:35:39.990Z,34.92
2022-11-05T08:38:10.003Z,34.50
2022-11-05T08:40:37.747Z,30.48
2022-11-05T08:43:07.477Z,35.50
2022-11-05T08:45:36.501Z,30.90
2022-11-05T08:48:06.629Z,29.75
2022-11-05T08:50:34.584Z,29.38
2022-11-05T08:53:01.518Z,29.20
2022-11-05T08:55:28.675Z,34.77
2022-11-05T08:57:56.947Z,33.47
2022-11-05T09:00:24.294Z,31.92
2022-11-05T09:02:51.447Z,28.30
2022-11-05T09:05:18.641Z,30.25
2022-11-05T09:07:46.018Z,28.60
2022-11-05T09:10:13.678Z,27.27
2022-11-05T09:12:40.728Z,23.90
2022-11-05T09:15:10.870Z,28.02
2022-11-05T09:17:37.848Z,25.80
2022-11-05T09:20:05.704Z,25.43
2022-11-05T09:22:32.778Z,23.42
2022-11-05T09:25:00.097Z,20.42
2022-11-05T09:27:26.996Z,19.58
2022-11-05T09:29:55.219Z,18.35
2022-11-05T09:32:22.065Z,18.33
2022-11-05T09:34:49.388Z,21.38
2022-11-05T09:37:16.748Z,19.52
2022-11-05T09:39:43.648Z,21.88
2022-11-05T09:42:17.560Z,19.20
2022-11-05T09:44:53.016Z,19.33
2022-11-05T09:47:47.014Z,22.55
2022-11-05T09:50:19.135Z,22.80
2022-11-05T09:52:46.060Z,20.00
2022-11-05T09:55:26.646Z,20.00
2022-11-05T09:57:59.534Z,37.23
2022-11-05T10:00:26.566Z,23.48
2022-11-05T10:03:03.429Z,19.45
2022-11-05T10:05:32.804Z,24.60
2022-11-05T10:08:03.463Z,21.38
2022-11-05T10:10:44.776Z,22.57
2022-11-05T10:13:51.828Z,20.85
2022-11-05T10:16:57.984Z,22.52
2022-11-05T10:19:30.922Z,24.25
2022-11-05T10:22:19.228Z,19.27
2022-11-05T10:24:49.309Z,23.03
2022-11-05T10:27:31.276Z,22.55
2022-11-05T10:29:58.205Z,16.73
2022-11-05T10:32:37.896Z,15.75
2022-11-05T10:35:07.684Z,18.17
2022-11-05T10:37:40.665Z,103.07
2022-11-05T10:40:30.546Z,50.47
2022-11-05T10:43:14.930Z,40.42
2022-11-05T10:46:05.859Z,77.60
2022-11-05T10:48:58.938Z,38.25
2022-11-05T10:51:28.714Z,38.40
2022-11-05T10:54:02.286Z,58.03
2022-11-05T10:56:34.982Z,51.75
2022-11-05T10:59:02.277Z,30.65
2022-11-05T11:01:32.452Z,79.95
2022-11-05T11:04:23.241Z,25.37
2022-11-05T11:06:56.079Z,44.53
2022-11-05T11:09:29.311Z,40.05
2022-11-05T11:12:05.255Z,26.83
2022-11-05T11:14:32.621Z,59.33
2022-11-05T11:17:26.254Z,18.73
2022-11-05T11:20:11.886Z,17.83
2022-11-05T11:22:41.751Z,20.25
2022-11-05T11:25:51.088Z,17.13
2022-11-05T11:28:22.511Z,14.98
2022-11-05T11:31:26.619Z,16.40
2022-11-05T11:34:05.145Z,16.10
2022-11-05T11:36:43.690Z,18.90
2022-11-05T11:39:17.630Z,11.05
2022-11-05T11:41:47.261Z,17.50
2022-11-05T11:44:25.425Z,15.40
2022-11-05T11:46:55.667Z,19.33
2022-11-05T11:49:54.551Z,16.48
2022-11-05T11:52:37.520Z,14.85
2022-11-05T11:55:13.532Z,16.23
2022-11-05T11:57:53.448Z,13.60
2022-11-05T12:00:23.844Z,12.80
2022-11-05T12:03:05.625Z,18.13
2022-11-05T12:05:42.666Z,14.55
2022-11-05T12:08:45.239Z,11.45
2022-11-05T12:11:23.790Z,11.63
2022-11-05T12:14:01.784Z,15.18
2022-11-05T12:16:51.523Z,12.63
2022-11-05T12:19:24.452Z,13.63
2022-11-05T12:22:20.651Z,11.05
2022-11-05T12:25:13.008Z,11.00
2022-11-05T12:28:01.096Z,7.78
2022-11-05T12:30:37.009Z,6.50
2022-11-05T12:33:24.034Z,7.40
2022-11-05T12:35:59.734Z,10.57
2022-11-05T12:38:29.581Z,9.90
2022-11-05T12:41:18.013Z,9.30
2022-11-05T12:43:53.233Z,7.90
2022-11-05T12:46:31.977Z,8.35
2022-11-05T12:49:35.761Z,13.27
2022-11-05T12:52:11.382Z,11.13
2022-11-05T12:54:57.633Z,7.75
2022-11-05T12:57:27.660Z,6.97
2022-11-05T13:00:13.155Z,13.02
2022-11-05T13:03:18.364Z,9.45
2022-11-05T13:08:52.609Z,6.95
2022-11-05T13:11:41.852Z,9.27
2022-11-05T13:14:41.176Z,7.28
2022-11-05T13:17:24.805Z,8.70
2022-11-05T13:20:06.976Z,8.57
2022-11-05T13:22:38.487Z,11.75
2022-11-05T13:25:20.354Z,11.77
2022-11-05T13:28:10.153Z,9.52
2022-11-05T13:30:52.767Z,8.15
2022-11-05T13:33:35.706Z,7.40
2022-11-05T13:36:07.539Z,8.23
2022-11-05T13:38:34.812Z,8.57
2022-11-05T13:41:12.721Z,11.23
2022-11-05T13:43:58.887Z,7.97
2022-11-05T13:46:31.988Z,8.33
2022-11-05T13:49:23.491Z,8.55
2022-11-05T13:51:54.250Z,12.00
2022-11-05T13:54:42.390Z,9.27
2022-11-05T13:57:28.642Z,10.43
2022-11-05T14:00:20.237Z,7.93
2022-11-05T14:03:02.080Z,10.27
2022-11-05T14:05:41.549Z,7.45
2022-11-05T14:08:17.618Z,9.13
2022-11-05T14:10:58.591Z,10.73
2022-11-05T14:13:44.708Z,10.53
2022-11-05T14:16:48.668Z,9.10
2022-11-05T14:19:18.677Z,9.48
2022-11-05T14:21:51.074Z,9.93
2022-11-05T14:24:23.834Z,9.85
2022-11-05T14:27:03.097Z,7.40
2022-11-05T14:29:40.482Z,11.07
2022-11-05T14:32:41.625Z,11.75
2022-11-05T14:35:17.704Z,13.13
2022-11-05T14:37:58.998Z,11.75
2022-11-05T14:40:39.661Z,13.40
2022-11-05T14:43:23.494Z,12.18
2022-11-05T14:46:02.216Z,13.32
2022-11-05T14:48:48.903Z,10.25
2022-11-05T14:51:30.953Z,15.23
2022-11-05T14:54:23.565Z,10.00
2022-11-05T14:56:56.398Z,9.32
2022-11-05T14:59:29.652Z,12.48
2022-11-05T15:02:04.661Z,10.20
2022-11-05T15:04:36.445Z,12.35
2022-11-05T15:07:03.299Z,12.37
2022-11-05T15:09:37.099Z,10.95
2022-11-05T15:12:09.748Z,9.73
2022-11-05T15:14:58.433Z,10.48
2022-11-05T15:17:32.550Z,11.52
2022-11-05T15:20:24.098Z,12.70
2022-11-05T15:23:00.409Z,10.25
2022-11-05T15:25:51.975Z,19.67
2022-11-05T15:28:46.131Z,21.27
2022-11-05T15:31:12.975Z,17.73
2022-11-05T15:33:49.457Z,20.33
2022-11-05T15:36:32.346Z,12.90
2022-11-05T15:39:27.927Z,21.83
2022-11-05T15:41:47.934Z,21.05
2022-11-05T15:44:38.022Z,21.45
2022-11-05T15:47:29.273Z,15.87
2022-11-05T15:49:57.957Z,19.63
2022-11-05T15:52:46.529Z,16.30
2022-11-05T15:55:13.386Z,21.00
2022-11-05T15:57:52.608Z,16.70
2022-11-05T16:00:25.878Z,19.37
2022-11-05T16:03:02.908Z,14.80
2022-11-05T16:05:36.339Z,16.33
2022-11-05T16:08:03.695Z,14.75
2022-11-05T16:10:34.515Z,15.95
2022-11-05T16:13:23.704Z,15.63
2022-11-05T16:16:00.842Z,13.40
2022-11-05T16:18:36.023Z,11.98
2022-11-05T16:21:04.710Z,11.02
2022-11-05T16:23:48.379Z,12.05
2022-11-05T16:27:01.135Z,12.43
2022-11-05T16:29:31.471Z,13.05
2022-11-05T16:32:00.309Z,13.68
2022-11-05T16:34:43.315Z,11.00
2022-11-05T16:37:16.095Z,12.30
2022-11-05T16:39:42.972Z,10.40
2022-11-05T16:42:24.877Z,11.65
2022-11-05T16:44:57.619Z,10.43
2022-11-05T16:47:27.349Z,12.27
2022-11-05T16:49:54.242Z,11.25
2022-11-05T16:52:21.716Z,14.13
2022-11-05T16:54:48.660Z,10.25
2022-11-05T16:57:28.404Z,13.10
2022-11-05T16:59:56.368Z,16.15
2022-11-05T17:02:23.368Z,14.18
2022-11-05T17:04:50.386Z,26.07
2022-11-05T17:07:17.240Z,18.73
2022-11-05T17:09:44.075Z,25.08
2022-11-05T17:12:12.338Z,23.52
2022-11-05T17:14:39.511Z,26.48
2022-11-05T17:17:06.558Z,28.33
2022-11-05T17:19:34.103Z,25.73
2022-11-05T17:22:00.839Z,22.77
2022-11-05T17:24:27.701Z,25.77
2022-11-05T17:26:54.664Z,23.13
2022-11-05T17:29:21.384Z,25.53
2022-11-05T17:31:48.328Z,15.15
2022-11-05T17:34:15.182Z,24.73
2022-11-05T17:36:41.895Z,36.55
2022-11-05T17:39:08.857Z,21.65
2022-11-05T17:41:36.286Z,21.03
2022-11-05T17:44:03.173Z,19.80
2022-11-05T17:46:29.956Z,16.67
2022-11-05T17:48:56.953Z,15.63
2022-11-05T17:51:23.671Z,18.27
2022-11-05T17:53:50.955Z,17.83
2022-11-05T17:56:28.793Z,17.73
2022-11-05T17:59:00.620Z,22.08
2022-11-05T18:01:33.927Z,19.50
2022-11-05T18:04:07.233Z,13.27
2022-11-05T18:06:35.964Z,13.67
2022-11-05T18:09:03.301Z,10.10
2022-11-05T18:11:30.170Z,11.30
2022-11-05T18:13:57.033Z,29.10
2022-11-05T18:16:23.844Z,21.15
2022-11-05T18:18:50.709Z,20.03
2022-11-05T18:21:19.018Z,17.65
2022-11-05T18:23:46.002Z,18.95
2022-11-05T18:26:16.725Z,19.42
2022-11-05T18:28:44.662Z,14.77
2022-11-05T18:31:18.445Z,18.40
2022-11-05T18:33:45.552Z,15.07
2022-11-05T18:36:23.975Z,13.95
2022-11-05T18:38:50.945Z,12.25
2022-11-05T18:41:18.911Z,13.93
2022-11-05T18:43:45.860Z,24.73
2022-11-05T18:46:29.211Z,22.00
2022-11-05T18:49:00.586Z,24.00
2022-11-05T18:51:27.841Z,18.52
2022-11-05T18:53:55.419Z,18.50
2022-11-05T18:56:22.558Z,17.60
2022-11-05T18:58:50.576Z,17.27
2022-11-05T19:01:26.511Z,15.60
2022-11-05T19:03:55.882Z,17.95
2022-11-05T19:06:23.398Z,15.95
2022-11-05T19:08:50.267Z,21.27
2022-11-05T19:11:23.902Z,16.25
2022-11-05T19:13:51.456Z,15.82
2022-11-05T19:16:21.376Z,26.20
2022-11-05T19:18:48.966Z,25.50
2022-11-05T19:21:30.112Z,16.97
2022-11-05T19:23:58.694Z,20.80
2022-11-05T19:26:29.769Z,15.85
2022-11-05T19:29:01.371Z,16.67
2022-11-05T19:31:28.647Z,17.88
2022-11-05T19:33:55.902Z,16.57
2022-11-05T19:36:24.107Z,15.43
2022-11-05T19:38:55.908Z,16.30
2022-11-05T19:41:22.664Z,17.73
2022-11-05T19:43:49.789Z,15.38
2022-11-05T19:46:19.417Z,20.90
2022-11-05T19:48:46.348Z,20.77
2022-11-05T19:51:25.273Z,21.42
2022-11-05T19:53:53.321Z,21.63
2022-11-05T19:56:26.946Z,18.33
2022-11-05T19:58:54.629Z,21.10
2022-11-05T20:01:26.864Z,21.17
2022-11-05T20:03:55.732Z,18.75
2022-11-05T20:06:26.531Z,19.98
2022-11-05T20:09:19.870Z,23.58
2022-11-05T20:11:40.732Z,18.33
2022-11-05T20:14:09.417Z,18.73
2022-11-05T20:16:36.658Z,20.38
2022-11-05T20:19:05.632Z,18.38
2022-11-05T20:21:33.064Z,17.90
2022-11-05T20:24:01.342Z,21.30
2022-11-05T20:26:28.556Z,11.63
2022-11-05T20:28:55.746Z,19.15
2022-11-05T20:31:23.104Z,23.60
2022-11-05T20:33:52.835Z,25.80
2022-11-05T20:36:21.908Z,21.23
2022-11-05T20:38:51.171Z,22.67
2022-11-05T20:41:19.200Z,18.02
2022-11-05T20:43:48.266Z,21.83
2022-11-05T20:46:17.168Z,15.70
2022-11-05T20:48:45.098Z,13.90
2022-11-05T20:51:15.171Z,16.23
2022-11-05T20:53:42.954Z,13.57
2022-11-05T20:56:20.531Z,13.07
2022-11-05T20:58:47.358Z,17.67
2022-11-05T21:01:15.388Z,23.63
2022-11-05T21:03:46.988Z,15.70
2022-11-05T21:06:14.363Z,16.27
2022-11-05T21:08:41.512Z,17.70
2022-11-05T21:11:09.069Z,18.70
2022-11-05T21:13:38.928Z,19.83
2022-11-05T21:16:08.223Z,17.45
2022-11-05T21:18:37.112Z,16.65
2022-11-05T21:21:16.538Z,14.38
2022-11-05T21:23:43.819Z,14.23
2022-11-05T21:26:14.415Z,12.87
2022-11-05T21:28:41.756Z,20.00
2022-11-05T21:31:09.624Z,34.70
2022-11-05T21:33:36.683Z,23.15
2022-11-05T21:36:11.390Z,19.35
2022-11-05T21:38:39.355Z,26.73
2022-11-05T21:41:10.043Z,30.25
2022-11-05T21:43:39.432Z,21.58
2022-11-05T21:46:06.876Z,29.23
2022-11-05T21:48:34.516Z,28.45
2022-11-05T21:51:01.686Z,24.67
2022-11-05T21:53:28.709Z,25.35
2022-11-05T21:55:56.947Z,23.27
2022-11-05T21:58:24.032Z,21.23
2022-11-05T22:00:50.867Z,24.40
2022-11-05T22:03:17.986Z,27.13
2022-11-05T22:05:45.399Z,31.20
2022-11-05T22:08:12.413Z,21.75
2022-11-05T22:10:39.260Z,23.25
2022-11-05T22:13:08.322Z,25.20
2022-11-05T22:15:35.104Z,26.47
2022-11-05T22:18:01.921Z,30.02
2022-11-05T22:20:29.239Z,22.98
2022-11-05T22:22:56.032Z,24.08
2022-11-05T22:25:22.810Z,25.10
2022-11-05T22:27:49.631Z,21.53
2022-11-05T22:30:16.934Z,27.10
2022-11-05T22:32:43.708Z,22.67
2022-11-05T22:35:11.059Z,23.73
2022-11-05T22:37:37.831Z,23.35
2022-11-05T22:40:05.157Z,24.30
2022-11-05T22:42:31.988Z,23.67
2022-11-05T22:44:58.769Z,21.55
2022-11-05T22:47:26.692Z,23.67
2022-11-05T22:49:53.694Z,19.75
2022-11-05T22:52:20.491Z,27.87
2022-11-05T22:54:47.218Z,22.50
2022-11-05T22:57:14.289Z,19.40
2022-11-05T22:59:41.259Z,20.63
2022-11-05T23:02:10.043Z,14.38
2022-11-05T23:04:37.968Z,10.57
2022-11-05T23:07:04.802Z,23.65
2022-11-05T23:09:34.411Z,25.10
2022-11-05T23:12:02.607Z,30.60
2022-11-05T23:14:29.655Z,32.00
2022-11-05T23:16:56.699Z,32.00
2022-11-05T23:19:23.897Z,33.15
2022-11-05T23:21:50.625Z,30.10
2022-11-05T23:24:17.481Z,30.02
2022-11-05T23:26:45.304Z,28.05
2022-11-05T23:29:12.038Z,25.93
2022-11-05T23:31:38.851Z,25.60
2022-11-05T23:34:05.866Z,23.20
2022-11-05T23:36:32.574Z,21.55
2022-11-05T23:38:59.395Z,15.57
2022-11-05T23:41:26.270Z,15.47
2022-11-05T23:43:53.019Z,17.52
2022-11-05T23:46:19.777Z,22.02
2022-11-05T23:48:48.283Z,27.85
2022-11-05T23:51:15.000Z,24.13
2022-11-05T23:53:41.904Z,24.40
2022-11-05T23:56:12.282Z,25.60
2022-11-05T23:58:39.949Z,29.67
